sensor_id;sensor_type;location;lat;lon;timestamp;P1;durP1;ratioP1;P2;durP2;ratioP2
48623;SDS011;34422;45.802;16.114;2022-09-09T00:02:21;21.70;;;14.35;;
48623;SDS011;34422;45.802;16.114;2022-09-09T00:04:57;22.33;;;13.57;;
48623;SDS011;34422;45.802;16.114;2022-09-09T00:18:31;15.60;;;11.10;;
48623;SDS011;34422;45.802;16.114;2022-09-09T00:21:06;20.42;;;11.15;;
48623;SDS011;34422;45.802;16.114;2022-09-09T00:23:39;17.52;;;10.63;;
48623;SDS011;34422;45.802;16.114;2022-09-09T00:31:35;11.82;;;8.13;;
48623;SDS011;34422;45.802;16.114;2022-09-09T00:34:12;12.25;;;8.88;;
48623;SDS011;34422;45.802;16.114;2022-09-09T00:36:41;11.48;;;7.90;;
48623;SDS011;34422;45.802;16.114;2022-09-09T00:39:10;10.90;;;7.80;;
48623;SDS011;34422;45.802;16.114;2022-09-09T00:44:36;12.17;;;8.17;;
48623;SDS011;34422;45.802;16.114;2022-09-09T00:58:07;24.48;;;15.70;;
48623;SDS011;34422;45.802;16.114;2022-09-09T01:06:55;18.58;;;14.20;;
48623;SDS011;34422;45.802;16.114;2022-09-09T01:17:07;11.13;;;8.77;;
48623;SDS011;34422;45.802;16.114;2022-09-09T01:27:46;11.68;;;8.18;;
48623;SDS011;34422;45.802;16.114;2022-09-09T01:30:16;11.13;;;8.73;;
48623;SDS011;34422;45.802;16.114;2022-09-09T01:32:52;12.63;;;8.77;;
48623;SDS011;34422;45.802;16.114;2022-09-09T01:38:06;11.63;;;8.57;;
48623;SDS011;34422;45.802;16.114;2022-09-09T01:40:33;11.32;;;7.40;;
48623;SDS011;34422;45.802;16.114;2022-09-09T01:43:01;14.60;;;8.63;;
48623;SDS011;34422;45.802;16.114;2022-09-09T01:45:27;13.65;;;8.25;;
48623;SDS011;34422;45.802;16.114;2022-09-09T01:47:55;13.80;;;9.70;;
48623;SDS011;34422;45.802;16.114;2022-09-09T01:50:22;10.60;;;5.78;;
48623;SDS011;34422;45.802;16.114;2022-09-09T01:52:50;6.75;;;4.80;;
48623;SDS011;34422;45.802;16.114;2022-09-09T01:55:30;9.73;;;5.07;;
48623;SDS011;34422;45.802;16.114;2022-09-09T02:00:33;8.25;;;4.53;;
48623;SDS011;34422;45.802;16.114;2022-09-09T02:05:45;6.70;;;4.47;;
48623;SDS011;34422;45.802;16.114;2022-09-09T02:08:17;7.55;;;4.30;;
48623;SDS011;34422;45.802;16.114;2022-09-09T02:10:54;8.52;;;4.25;;
48623;SDS011;34422;45.802;16.114;2022-09-09T02:15:56;7.60;;;2.70;;
48623;SDS011;34422;45.802;16.114;2022-09-09T02:18:28;7.07;;;3.25;;
48623;SDS011;34422;45.802;16.114;2022-09-09T02:20:59;5.38;;;2.78;;
48623;SDS011;34422;45.802;16.114;2022-09-09T02:23:28;6.60;;;2.45;;
48623;SDS011;34422;45.802;16.114;2022-09-09T02:25:58;6.07;;;2.17;;
48623;SDS011;34422;45.802;16.114;2022-09-09T02:28:25;7.40;;;2.70;;
48623;SDS011;34422;45.802;16.114;2022-09-09T02:30:56;4.78;;;2.10;;
48623;SDS011;34422;45.802;16.114;2022-09-09T02:33:25;4.55;;;2.17;;
48623;SDS011;34422;45.802;16.114;2022-09-09T02:35:56;4.97;;;2.17;;
48623;SDS011;34422;45.802;16.114;2022-09-09T02:38:28;5.65;;;2.17;;
48623;SDS011;34422;45.802;16.114;2022-09-09T02:40:59;5.55;;;2.10;;
48623;SDS011;34422;45.802;16.114;2022-09-09T02:43:33;4.72;;;1.85;;
48623;SDS011;34422;45.802;16.114;2022-09-09T02:48:47;5.65;;;2.47;;
48623;SDS011;34422;45.802;16.114;2022-09-09T02:51:35;4.78;;;1.80;;
48623;SDS011;34422;45.802;16.114;2022-09-09T02:54:28;4.70;;;1.85;;
48623;SDS011;34422;45.802;16.114;2022-09-09T02:57:39;4.57;;;2.00;;
48623;SDS011;34422;45.802;16.114;2022-09-09T02:59:55;4.55;;;1.92;;
48623;SDS011;34422;45.802;16.114;2022-09-09T03:02:23;4.43;;;1.93;;
48623;SDS011;34422;45.802;16.114;2022-09-09T03:04:51;3.42;;;1.50;;
48623;SDS011;34422;45.802;16.114;2022-09-09T03:07:18;3.40;;;1.50;;
48623;SDS011;34422;45.802;16.114;2022-09-09T03:09:46;3.55;;;1.50;;
48623;SDS011;34422;45.802;16.114;2022-09-09T03:12:12;4.00;;;1.73;;
48623;SDS011;34422;45.802;16.114;2022-09-09T03:14:39;6.78;;;1.95;;
48623;SDS011;34422;45.802;16.114;2022-09-09T03:17:06;3.90;;;1.73;;
48623;SDS011;34422;45.802;16.114;2022-09-09T03:19:32;4.28;;;2.05;;
48623;SDS011;34422;45.802;16.114;2022-09-09T03:22:00;4.25;;;1.75;;
48623;SDS011;34422;45.802;16.114;2022-09-09T03:24:27;4.22;;;1.75;;
48623;SDS011;34422;45.802;16.114;2022-09-09T03:26:54;4.55;;;2.05;;
48623;SDS011;34422;45.802;16.114;2022-09-09T03:29:22;4.03;;;1.80;;
48623;SDS011;34422;45.802;16.114;2022-09-09T03:31:48;4.95;;;1.90;;
48623;SDS011;34422;45.802;16.114;2022-09-09T03:34:16;4.75;;;2.10;;
48623;SDS011;34422;45.802;16.114;2022-09-09T03:36:43;6.60;;;2.05;;
48623;SDS011;34422;45.802;16.114;2022-09-09T03:39:10;4.93;;;2.25;;
48623;SDS011;34422;45.802;16.114;2022-09-09T03:41:36;5.40;;;1.85;;
48623;SDS011;34422;45.802;16.114;2022-09-09T03:44:03;3.92;;;1.60;;
48623;SDS011;34422;45.802;16.114;2022-09-09T03:46:30;4.28;;;1.90;;
48623;SDS011;34422;45.802;16.114;2022-09-09T03:48:58;5.13;;;1.90;;
48623;SDS011;34422;45.802;16.114;2022-09-09T03:51:24;4.95;;;1.90;;
48623;SDS011;34422;45.802;16.114;2022-09-09T03:53:52;5.28;;;1.92;;
48623;SDS011;34422;45.802;16.114;2022-09-09T03:56:24;4.55;;;1.98;;
48623;SDS011;34422;45.802;16.114;2022-09-09T03:58:51;9.52;;;2.38;;
48623;SDS011;34422;45.802;16.114;2022-09-09T04:01:17;5.28;;;2.20;;
48623;SDS011;34422;45.802;16.114;2022-09-09T04:03:44;7.78;;;2.15;;
48623;SDS011;34422;45.802;16.114;2022-09-09T04:06:12;5.85;;;2.20;;
48623;SDS011;34422;45.802;16.114;2022-09-09T04:08:40;6.28;;;2.67;;
48623;SDS011;34422;45.802;16.114;2022-09-09T04:11:09;7.30;;;2.20;;
48623;SDS011;34422;45.802;16.114;2022-09-09T04:13:37;8.45;;;2.35;;
48623;SDS011;34422;45.802;16.114;2022-09-09T04:16:05;6.82;;;2.03;;
48623;SDS011;34422;45.802;16.114;2022-09-09T04:18:33;4.95;;;2.28;;
48623;SDS011;34422;45.802;16.114;2022-09-09T04:21:00;4.88;;;2.25;;
48623;SDS011;34422;45.802;16.114;2022-09-09T04:23:27;6.57;;;2.53;;
48623;SDS011;34422;45.802;16.114;2022-09-09T04:25:58;4.55;;;2.30;;
48623;SDS011;34422;45.802;16.114;2022-09-09T04:28:27;6.13;;;3.05;;
48623;SDS011;34422;45.802;16.114;2022-09-09T04:30:56;6.22;;;2.50;;
48623;SDS011;34422;45.802;16.114;2022-09-09T04:33:24;8.20;;;2.40;;
48623;SDS011;34422;45.802;16.114;2022-09-09T04:35:53;6.35;;;2.90;;
48623;SDS011;34422;45.802;16.114;2022-09-09T04:38:21;5.40;;;2.40;;
48623;SDS011;34422;45.802;16.114;2022-09-09T04:40:49;8.10;;;2.83;;
48623;SDS011;34422;45.802;16.114;2022-09-09T04:43:18;5.47;;;2.78;;
48623;SDS011;34422;45.802;16.114;2022-09-09T04:45:48;8.15;;;2.60;;
48623;SDS011;34422;45.802;16.114;2022-09-09T04:48:17;7.88;;;2.75;;
48623;SDS011;34422;45.802;16.114;2022-09-09T04:50:53;4.45;;;2.33;;
48623;SDS011;34422;45.802;16.114;2022-09-09T04:53:31;6.13;;;2.92;;
48623;SDS011;34422;45.802;16.114;2022-09-09T04:56:01;5.03;;;2.50;;
48623;SDS011;34422;45.802;16.114;2022-09-09T04:58:29;5.63;;;2.08;;
48623;SDS011;34422;45.802;16.114;2022-09-09T05:01:10;5.38;;;2.38;;
48623;SDS011;34422;45.802;16.114;2022-09-09T05:03:39;6.13;;;2.00;;
48623;SDS011;34422;45.802;16.114;2022-09-09T05:06:07;4.38;;;2.38;;
48623;SDS011;34422;45.802;16.114;2022-09-09T05:08:36;6.68;;;2.28;;
48623;SDS011;34422;45.802;16.114;2022-09-09T05:11:18;7.80;;;2.22;;
48623;SDS011;34422;45.802;16.114;2022-09-09T05:13:45;6.65;;;2.60;;
48623;SDS011;34422;45.802;16.114;2022-09-09T05:16:13;5.75;;;2.00;;
48623;SDS011;34422;45.802;16.114;2022-09-09T05:18:40;5.18;;;2.15;;
48623;SDS011;34422;45.802;16.114;2022-09-09T05:21:11;8.52;;;2.60;;
48623;SDS011;34422;45.802;16.114;2022-09-09T05:23:38;4.78;;;1.90;;
48623;SDS011;34422;45.802;16.114;2022-09-09T05:26:05;6.10;;;2.15;;
48623;SDS011;34422;45.802;16.114;2022-09-09T05:28:34;5.30;;;1.98;;
48623;SDS011;34422;45.802;16.114;2022-09-09T05:31:07;11.38;;;2.72;;
48623;SDS011;34422;45.802;16.114;2022-09-09T05:33:38;6.22;;;2.30;;
48623;SDS011;34422;45.802;16.114;2022-09-09T05:36:10;5.70;;;2.40;;
48623;SDS011;34422;45.802;16.114;2022-09-09T05:38:39;5.75;;;2.13;;
48623;SDS011;34422;45.802;16.114;2022-09-09T05:41:07;5.57;;;2.50;;
48623;SDS011;34422;45.802;16.114;2022-09-09T05:43:36;8.05;;;2.47;;
48623;SDS011;34422;45.802;16.114;2022-09-09T05:46:05;7.78;;;2.38;;
48623;SDS011;34422;45.802;16.114;2022-09-09T05:48:33;6.32;;;2.60;;
48623;SDS011;34422;45.802;16.114;2022-09-09T05:51:01;5.43;;;2.53;;
48623;SDS011;34422;45.802;16.114;2022-09-09T05:53:29;8.15;;;2.80;;
48623;SDS011;34422;45.802;16.114;2022-09-09T05:56:10;5.50;;;2.45;;
48623;SDS011;34422;45.802;16.114;2022-09-09T05:58:42;7.95;;;2.75;;
48623;SDS011;34422;45.802;16.114;2022-09-09T06:01:11;5.32;;;2.55;;
48623;SDS011;34422;45.802;16.114;2022-09-09T06:03:40;6.22;;;2.50;;
48623;SDS011;34422;45.802;16.114;2022-09-09T06:06:09;8.15;;;2.30;;
48623;SDS011;34422;45.802;16.114;2022-09-09T06:08:39;4.00;;;1.70;;
48623;SDS011;34422;45.802;16.114;2022-09-09T06:11:08;6.15;;;2.33;;
48623;SDS011;34422;45.802;16.114;2022-09-09T06:13:40;4.95;;;2.22;;
48623;SDS011;34422;45.802;16.114;2022-09-09T06:16:08;5.85;;;1.77;;
48623;SDS011;34422;45.802;16.114;2022-09-09T06:18:40;5.90;;;1.95;;
48623;SDS011;34422;45.802;16.114;2022-09-09T06:21:16;4.38;;;1.63;;
48623;SDS011;34422;45.802;16.114;2022-09-09T06:23:44;4.55;;;1.60;;
48623;SDS011;34422;45.802;16.114;2022-09-09T06:26:12;4.68;;;1.48;;
48623;SDS011;34422;45.802;16.114;2022-09-09T06:28:39;7.97;;;1.70;;
48623;SDS011;34422;45.802;16.114;2022-09-09T06:31:07;3.33;;;1.40;;
48623;SDS011;34422;45.802;16.114;2022-09-09T06:33:35;4.03;;;1.42;;
48623;SDS011;34422;45.802;16.114;2022-09-09T06:36:05;5.07;;;1.30;;
48623;SDS011;34422;45.802;16.114;2022-09-09T06:38:32;3.80;;;1.65;;
48623;SDS011;34422;45.802;16.114;2022-09-09T06:40:59;4.07;;;1.52;;
48623;SDS011;34422;45.802;16.114;2022-09-09T06:43:27;6.05;;;1.73;;
48623;SDS011;34422;45.802;16.114;2022-09-09T06:45:58;4.38;;;1.88;;
48623;SDS011;34422;45.802;16.114;2022-09-09T06:48:29;4.22;;;1.83;;
48623;SDS011;34422;45.802;16.114;2022-09-09T06:51:16;5.15;;;1.83;;
48623;SDS011;34422;45.802;16.114;2022-09-09T06:53:45;5.22;;;1.50;;
48623;SDS011;34422;45.802;16.114;2022-09-09T06:58:44;5.32;;;1.40;;
48623;SDS011;34422;45.802;16.114;2022-09-09T07:01:22;4.55;;;1.33;;
48623;SDS011;34422;45.802;16.114;2022-09-09T07:03:51;4.68;;;1.45;;
48623;SDS011;34422;45.802;16.114;2022-09-09T07:06:22;5.80;;;1.40;;
48623;SDS011;34422;45.802;16.114;2022-09-09T07:08:54;3.45;;;1.35;;
48623;SDS011;34422;45.802;16.114;2022-09-09T07:11:24;4.47;;;1.58;;
48623;SDS011;34422;45.802;16.114;2022-09-09T07:13:54;5.63;;;1.50;;
48623;SDS011;34422;45.802;16.114;2022-09-09T07:16:23;3.60;;;1.27;;
48623;SDS011;34422;45.802;16.114;2022-09-09T07:18:51;5.45;;;1.15;;
48623;SDS011;34422;45.802;16.114;2022-09-09T07:21:18;3.38;;;1.20;;
48623;SDS011;34422;45.802;16.114;2022-09-09T07:23:47;3.90;;;0.90;;
48623;SDS011;34422;45.802;16.114;2022-09-09T07:26:14;3.30;;;1.10;;
48623;SDS011;34422;45.802;16.114;2022-09-09T07:28:45;5.22;;;1.27;;
48623;SDS011;34422;45.802;16.114;2022-09-09T07:31:14;4.40;;;1.35;;
48623;SDS011;34422;45.802;16.114;2022-09-09T07:33:43;5.13;;;1.30;;
48623;SDS011;34422;45.802;16.114;2022-09-09T07:36:15;3.67;;;0.98;;
48623;SDS011;34422;45.802;16.114;2022-09-09T07:38:45;2.75;;;0.93;;
48623;SDS011;34422;45.802;16.114;2022-09-09T07:41:17;3.40;;;1.15;;
48623;SDS011;34422;45.802;16.114;2022-09-09T07:43:47;6.57;;;1.30;;
48623;SDS011;34422;45.802;16.114;2022-09-09T07:46:14;5.75;;;1.30;;
48623;SDS011;34422;45.802;16.114;2022-09-09T07:48:46;3.92;;;1.17;;
48623;SDS011;34422;45.802;16.114;2022-09-09T07:51:18;3.10;;;1.10;;
48623;SDS011;34422;45.802;16.114;2022-09-09T07:53:51;3.28;;;1.10;;
48623;SDS011;34422;45.802;16.114;2022-09-09T07:56:20;3.22;;;0.88;;
48623;SDS011;34422;45.802;16.114;2022-09-09T07:58:50;3.95;;;1.08;;
48623;SDS011;34422;45.802;16.114;2022-09-09T08:01:20;4.70;;;1.10;;
48623;SDS011;34422;45.802;16.114;2022-09-09T08:03:55;3.53;;;1.00;;
48623;SDS011;34422;45.802;16.114;2022-09-09T08:06:28;3.47;;;0.80;;
48623;SDS011;34422;45.802;16.114;2022-09-09T08:08:56;3.03;;;1.40;;
48623;SDS011;34422;45.802;16.114;2022-09-09T08:11:28;2.65;;;0.90;;
48623;SDS011;34422;45.802;16.114;2022-09-09T08:13:57;3.22;;;1.00;;
48623;SDS011;34422;45.802;16.114;2022-09-09T08:16:25;5.00;;;1.15;;
48623;SDS011;34422;45.802;16.114;2022-09-09T08:18:54;4.60;;;1.08;;
48623;SDS011;34422;45.802;16.114;2022-09-09T08:21:22;3.47;;;1.10;;
48623;SDS011;34422;45.802;16.114;2022-09-09T08:23:50;3.53;;;1.00;;
48623;SDS011;34422;45.802;16.114;2022-09-09T08:26:20;14.03;;;1.37;;
48623;SDS011;34422;45.802;16.114;2022-09-09T08:31:20;3.65;;;1.00;;
48623;SDS011;34422;45.802;16.114;2022-09-09T08:33:49;2.75;;;0.73;;
48623;SDS011;34422;45.802;16.114;2022-09-09T08:36:19;3.33;;;1.15;;
48623;SDS011;34422;45.802;16.114;2022-09-09T08:38:48;4.30;;;0.82;;
48623;SDS011;34422;45.802;16.114;2022-09-09T08:44:01;5.20;;;1.02;;
48623;SDS011;34422;45.802;16.114;2022-09-09T08:52:15;2.45;;;0.70;;
48623;SDS011;34422;45.802;16.114;2022-09-09T08:54:45;2.40;;;0.73;;
48623;SDS011;34422;45.802;16.114;2022-09-09T08:57:14;2.25;;;0.73;;
48623;SDS011;34422;45.802;16.114;2022-09-09T08:59:53;4.50;;;0.75;;
48623;SDS011;34422;45.802;16.114;2022-09-09T09:02:25;2.58;;;0.60;;
48623;SDS011;34422;45.802;16.114;2022-09-09T09:05:09;4.10;;;0.75;;
48623;SDS011;34422;45.802;16.114;2022-09-09T09:07:54;2.22;;;0.60;;
48623;SDS011;34422;45.802;16.114;2022-09-09T09:13:14;3.45;;;0.73;;
48623;SDS011;34422;45.802;16.114;2022-09-09T09:15:44;3.97;;;0.60;;
48623;SDS011;34422;45.802;16.114;2022-09-09T09:18:16;1.42;;;0.50;;
48623;SDS011;34422;45.802;16.114;2022-09-09T09:21:03;3.97;;;0.88;;
48623;SDS011;34422;45.802;16.114;2022-09-09T09:23:39;3.25;;;0.73;;
48623;SDS011;34422;45.802;16.114;2022-09-09T09:26:20;3.00;;;0.60;;
48623;SDS011;34422;45.802;16.114;2022-09-09T09:28:50;4.17;;;0.90;;
48623;SDS011;34422;45.802;16.114;2022-09-09T09:31:20;2.63;;;0.70;;
48623;SDS011;34422;45.802;16.114;2022-09-09T09:33:55;2.72;;;0.90;;
48623;SDS011;34422;45.802;16.114;2022-09-09T09:36:32;3.47;;;1.05;;
48623;SDS011;34422;45.802;16.114;2022-09-09T09:39:05;5.15;;;0.93;;
48623;SDS011;34422;45.802;16.114;2022-09-09T09:41:34;5.57;;;0.80;;
48623;SDS011;34422;45.802;16.114;2022-09-09T09:44:05;2.40;;;0.70;;
48623;SDS011;34422;45.802;16.114;2022-09-09T09:46:48;2.83;;;0.55;;
48623;SDS011;34422;45.802;16.114;2022-09-09T09:49:14;3.47;;;0.68;;
48623;SDS011;34422;45.802;16.114;2022-09-09T09:51:42;3.60;;;0.77;;
48623;SDS011;34422;45.802;16.114;2022-09-09T09:56:40;2.03;;;0.60;;
48623;SDS011;34422;45.802;16.114;2022-09-09T09:59:21;3.33;;;0.77;;
48623;SDS011;34422;45.802;16.114;2022-09-09T10:01:54;3.22;;;0.75;;
48623;SDS011;34422;45.802;16.114;2022-09-09T10:04:22;4.50;;;0.60;;
48623;SDS011;34422;45.802;16.114;2022-09-09T10:06:52;3.70;;;0.80;;
48623;SDS011;34422;45.802;16.114;2022-09-09T10:09:28;2.92;;;0.63;;
48623;SDS011;34422;45.802;16.114;2022-09-09T10:14:31;3.45;;;0.68;;
48623;SDS011;34422;45.802;16.114;2022-09-09T10:22:47;3.28;;;0.95;;
48623;SDS011;34422;45.802;16.114;2022-09-09T10:25:31;2.92;;;0.80;;
48623;SDS011;34422;45.802;16.114;2022-09-09T10:36:19;4.57;;;1.20;;
48623;SDS011;34422;45.802;16.114;2022-09-09T10:39:35;3.53;;;0.90;;
48623;SDS011;34422;45.802;16.114;2022-09-09T10:55:26;10.55;;;1.60;;
48623;SDS011;34422;45.802;16.114;2022-09-09T10:58:02;2.55;;;0.82;;
48623;SDS011;34422;45.802;16.114;2022-09-09T11:00:38;2.33;;;0.70;;
48623;SDS011;34422;45.802;16.114;2022-09-09T11:03:17;4.45;;;1.00;;
48623;SDS011;34422;45.802;16.114;2022-09-09T11:05:49;2.83;;;0.82;;
48623;SDS011;34422;45.802;16.114;2022-09-09T11:08:27;5.10;;;1.15;;
48623;SDS011;34422;45.802;16.114;2022-09-09T11:13:35;3.83;;;0.85;;
48623;SDS011;34422;45.802;16.114;2022-09-09T11:16:56;4.85;;;1.05;;
48623;SDS011;34422;45.802;16.114;2022-09-09T11:19:03;4.85;;;1.30;;
48623;SDS011;34422;45.802;16.114;2022-09-09T11:21:38;4.50;;;1.00;;
48623;SDS011;34422;45.802;16.114;2022-09-09T11:24:34;3.92;;;0.82;;
48623;SDS011;34422;45.802;16.114;2022-09-09T11:27:12;3.55;;;1.00;;
48623;SDS011;34422;45.802;16.114;2022-09-09T11:38:26;3.60;;;1.10;;
48623;SDS011;34422;45.802;16.114;2022-09-09T11:41:07;3.92;;;1.70;;
48623;SDS011;34422;45.802;16.114;2022-09-09T11:43:40;7.35;;;4.53;;
48623;SDS011;34422;45.802;16.114;2022-09-09T11:46:09;4.82;;;1.33;;
48623;SDS011;34422;45.802;16.114;2022-09-09T11:51:09;4.05;;;1.27;;
48623;SDS011;34422;45.802;16.114;2022-09-09T11:54:00;3.53;;;0.90;;
48623;SDS011;34422;45.802;16.114;2022-09-09T11:56:32;4.22;;;1.15;;
48623;SDS011;34422;45.802;16.114;2022-09-09T11:59:06;3.03;;;0.88;;
48623;SDS011;34422;45.802;16.114;2022-09-09T12:01:49;5.45;;;1.42;;
48623;SDS011;34422;45.802;16.114;2022-09-09T12:09:58;3.55;;;0.77;;
48623;SDS011;34422;45.802;16.114;2022-09-09T12:12:29;4.45;;;1.25;;
48623;SDS011;34422;45.802;16.114;2022-09-09T12:15:03;3.33;;;1.13;;
48623;SDS011;34422;45.802;16.114;2022-09-09T12:17:50;5.55;;;1.30;;
48623;SDS011;34422;45.802;16.114;2022-09-09T12:23:30;3.95;;;1.40;;
48623;SDS011;34422;45.802;16.114;2022-09-09T12:26:00;3.97;;;1.10;;
48623;SDS011;34422;45.802;16.114;2022-09-09T12:31:31;3.83;;;1.30;;
48623;SDS011;34422;45.802;16.114;2022-09-09T12:34:11;3.92;;;1.48;;
48623;SDS011;34422;45.802;16.114;2022-09-09T12:36:42;5.80;;;1.73;;
48623;SDS011;34422;45.802;16.114;2022-09-09T12:39:22;5.50;;;1.60;;
48623;SDS011;34422;45.802;16.114;2022-09-09T12:41:56;6.85;;;2.45;;
48623;SDS011;34422;45.802;16.114;2022-09-09T12:44:25;5.10;;;1.92;;
48623;SDS011;34422;45.802;16.114;2022-09-09T12:46:54;7.85;;;1.83;;
48623;SDS011;34422;45.802;16.114;2022-09-09T12:52:16;5.03;;;2.38;;
48623;SDS011;34422;45.802;16.114;2022-09-09T12:54:46;4.18;;;1.80;;
48623;SDS011;34422;45.802;16.114;2022-09-09T12:57:13;6.65;;;2.03;;
48623;SDS011;34422;45.802;16.114;2022-09-09T12:59:42;4.53;;;1.60;;
48623;SDS011;34422;45.802;16.114;2022-09-09T13:02:16;5.13;;;2.70;;
48623;SDS011;34422;45.802;16.114;2022-09-09T13:04:45;11.57;;;2.10;;
48623;SDS011;34422;45.802;16.114;2022-09-09T13:07:13;6.50;;;2.30;;
48623;SDS011;34422;45.802;16.114;2022-09-09T13:09:43;10.65;;;2.83;;
48623;SDS011;34422;45.802;16.114;2022-09-09T13:12:14;9.30;;;2.60;;
48623;SDS011;34422;45.802;16.114;2022-09-09T13:14:45;4.38;;;1.80;;
48623;SDS011;34422;45.802;16.114;2022-09-09T13:19:44;5.55;;;2.22;;
48623;SDS011;34422;45.802;16.114;2022-09-09T13:22:29;6.68;;;2.47;;
48623;SDS011;34422;45.802;16.114;2022-09-09T13:25:13;8.18;;;2.30;;
48623;SDS011;34422;45.802;16.114;2022-09-09T13:30:27;9.65;;;2.85;;
48623;SDS011;34422;45.802;16.114;2022-09-09T13:35:29;6.28;;;3.03;;
48623;SDS011;34422;45.802;16.114;2022-09-09T13:37:57;4.82;;;2.17;;
48623;SDS011;34422;45.802;16.114;2022-09-09T13:40:25;5.57;;;2.70;;
48623;SDS011;34422;45.802;16.114;2022-09-09T13:42:54;7.35;;;2.05;;
48623;SDS011;34422;45.802;16.114;2022-09-09T13:45:24;8.13;;;2.22;;
48623;SDS011;34422;45.802;16.114;2022-09-09T13:47:55;8.13;;;2.15;;
48623;SDS011;34422;45.802;16.114;2022-09-09T13:50:23;6.47;;;2.25;;
48623;SDS011;34422;45.802;16.114;2022-09-09T13:52:56;4.70;;;2.47;;
48623;SDS011;34422;45.802;16.114;2022-09-09T13:55:25;10.73;;;3.17;;
48623;SDS011;34422;45.802;16.114;2022-09-09T13:57:59;7.72;;;2.78;;
48623;SDS011;34422;45.802;16.114;2022-09-09T14:00:31;5.65;;;1.63;;
48623;SDS011;34422;45.802;16.114;2022-09-09T14:03:00;5.65;;;1.88;;
48623;SDS011;34422;45.802;16.114;2022-09-09T14:05:30;6.15;;;1.77;;
48623;SDS011;34422;45.802;16.114;2022-09-09T14:07:58;5.15;;;1.65;;
48623;SDS011;34422;45.802;16.114;2022-09-09T14:10:26;6.85;;;1.63;;
48623;SDS011;34422;45.802;16.114;2022-09-09T14:12:53;3.92;;;1.50;;
48623;SDS011;34422;45.802;16.114;2022-09-09T14:15:20;4.75;;;1.55;;
48623;SDS011;34422;45.802;16.114;2022-09-09T14:17:48;3.60;;;1.50;;
48623;SDS011;34422;45.802;16.114;2022-09-09T14:20:15;5.22;;;1.70;;
48623;SDS011;34422;45.802;16.114;2022-09-09T14:22:43;4.05;;;1.35;;
48623;SDS011;34422;45.802;16.114;2022-09-09T14:25:10;3.65;;;1.60;;
48623;SDS011;34422;45.802;16.114;2022-09-09T14:27:39;4.30;;;2.03;;
48623;SDS011;34422;45.802;16.114;2022-09-09T14:30:06;5.18;;;1.75;;
48623;SDS011;34422;45.802;16.114;2022-09-09T14:32:34;4.10;;;1.55;;
48623;SDS011;34422;45.802;16.114;2022-09-09T14:35:01;3.80;;;1.33;;
48623;SDS011;34422;45.802;16.114;2022-09-09T14:37:28;8.73;;;1.38;;
48623;SDS011;34422;45.802;16.114;2022-09-09T14:39:59;7.32;;;1.70;;
48623;SDS011;34422;45.802;16.114;2022-09-09T14:42:26;3.78;;;1.42;;
48623;SDS011;34422;45.802;16.114;2022-09-09T14:44:53;4.70;;;1.67;;
48623;SDS011;34422;45.802;16.114;2022-09-09T14:47:19;4.15;;;1.63;;
48623;SDS011;34422;45.802;16.114;2022-09-09T14:49:46;5.75;;;1.48;;
48623;SDS011;34422;45.802;16.114;2022-09-09T14:52:16;5.03;;;1.48;;
48623;SDS011;34422;45.802;16.114;2022-09-09T14:54:43;5.03;;;1.63;;
48623;SDS011;34422;45.802;16.114;2022-09-09T14:57:10;2.97;;;1.20;;
48623;SDS011;34422;45.802;16.114;2022-09-09T14:59:36;3.25;;;1.20;;
48623;SDS011;34422;45.802;16.114;2022-09-09T15:02:03;5.75;;;1.65;;
48623;SDS011;34422;45.802;16.114;2022-09-09T15:04:30;4.43;;;1.30;;
48623;SDS011;34422;45.802;16.114;2022-09-09T15:06:57;4.68;;;1.58;;
48623;SDS011;34422;45.802;16.114;2022-09-09T15:09:24;4.65;;;2.00;;
48623;SDS011;34422;45.802;16.114;2022-09-09T15:11:51;5.03;;;1.77;;
48623;SDS011;34422;45.802;16.114;2022-09-09T15:14:18;4.00;;;1.48;;
48623;SDS011;34422;45.802;16.114;2022-09-09T15:16:45;6.15;;;1.67;;
48623;SDS011;34422;45.802;16.114;2022-09-09T15:19:11;4.20;;;1.75;;
48623;SDS011;34422;45.802;16.114;2022-09-09T15:21:38;4.05;;;2.00;;
48623;SDS011;34422;45.802;16.114;2022-09-09T15:24:05;3.97;;;1.60;;
48623;SDS011;34422;45.802;16.114;2022-09-09T15:26:34;7.10;;;2.90;;
48623;SDS011;34422;45.802;16.114;2022-09-09T15:31:31;5.72;;;3.25;;
48623;SDS011;34422;45.802;16.114;2022-09-09T15:34:03;5.90;;;2.40;;
48623;SDS011;34422;45.802;16.114;2022-09-09T15:36:36;5.40;;;2.10;;
48623;SDS011;34422;45.802;16.114;2022-09-09T15:39:05;6.32;;;2.15;;
48623;SDS011;34422;45.802;16.114;2022-09-09T15:41:34;4.90;;;2.35;;
48623;SDS011;34422;45.802;16.114;2022-09-09T15:44:01;5.97;;;2.28;;
48623;SDS011;34422;45.802;16.114;2022-09-09T15:46:38;6.60;;;1.92;;
48623;SDS011;34422;45.802;16.114;2022-09-09T15:49:12;4.22;;;1.90;;
48623;SDS011;34422;45.802;16.114;2022-09-09T15:51:42;6.72;;;2.33;;
48623;SDS011;34422;45.802;16.114;2022-09-09T15:54:17;4.43;;;1.93;;
48623;SDS011;34422;45.802;16.114;2022-09-09T15:56:45;3.95;;;1.60;;
48623;SDS011;34422;45.802;16.114;2022-09-09T15:59:14;5.05;;;1.90;;
48623;SDS011;34422;45.802;16.114;2022-09-09T16:01:42;6.53;;;2.47;;
48623;SDS011;34422;45.802;16.114;2022-09-09T16:04:10;4.07;;;1.88;;
48623;SDS011;34422;45.802;16.114;2022-09-09T16:06:37;5.57;;;2.10;;
48623;SDS011;34422;45.802;16.114;2022-09-09T16:09:06;5.07;;;1.65;;
48623;SDS011;34422;45.802;16.114;2022-09-09T16:11:34;3.38;;;1.48;;
48623;SDS011;34422;45.802;16.114;2022-09-09T16:14:02;16.90;;;5.63;;
48623;SDS011;34422;45.802;16.114;2022-09-09T16:16:30;10.60;;;2.13;;
48623;SDS011;34422;45.802;16.114;2022-09-09T16:19:03;5.40;;;2.20;;
48623;SDS011;34422;45.802;16.114;2022-09-09T16:21:36;4.85;;;1.73;;
48623;SDS011;34422;45.802;16.114;2022-09-09T16:24:15;5.25;;;1.90;;
48623;SDS011;34422;45.802;16.114;2022-09-09T16:26:47;4.53;;;1.90;;
48623;SDS011;34422;45.802;16.114;2022-09-09T16:29:16;5.55;;;1.75;;
48623;SDS011;34422;45.802;16.114;2022-09-09T16:31:45;3.95;;;1.70;;
48623;SDS011;34422;45.802;16.114;2022-09-09T16:34:13;6.78;;;1.80;;
48623;SDS011;34422;45.802;16.114;2022-09-09T16:36:42;4.78;;;1.80;;
48623;SDS011;34422;45.802;16.114;2022-09-09T16:39:11;5.00;;;2.17;;
48623;SDS011;34422;45.802;16.114;2022-09-09T16:41:42;5.93;;;2.03;;
48623;SDS011;34422;45.802;16.114;2022-09-09T16:44:11;6.65;;;1.90;;
48623;SDS011;34422;45.802;16.114;2022-09-09T16:46:39;4.15;;;2.05;;
48623;SDS011;34422;45.802;16.114;2022-09-09T16:49:09;4.13;;;1.73;;
48623;SDS011;34422;45.802;16.114;2022-09-09T16:51:39;3.60;;;1.60;;
48623;SDS011;34422;45.802;16.114;2022-09-09T16:54:07;5.72;;;2.20;;
48623;SDS011;34422;45.802;16.114;2022-09-09T16:56:36;6.85;;;2.38;;
48623;SDS011;34422;45.802;16.114;2022-09-09T16:59:05;7.03;;;2.17;;
48623;SDS011;34422;45.802;16.114;2022-09-09T17:01:36;6.43;;;2.10;;
48623;SDS011;34422;45.802;16.114;2022-09-09T17:04:05;5.90;;;2.05;;
48623;SDS011;34422;45.802;16.114;2022-09-09T17:06:37;4.95;;;2.35;;
48623;SDS011;34422;45.802;16.114;2022-09-09T17:09:05;5.10;;;2.22;;
48623;SDS011;34422;45.802;16.114;2022-09-09T17:11:33;7.53;;;3.00;;
48623;SDS011;34422;45.802;16.114;2022-09-09T17:14:01;7.22;;;3.22;;
48623;SDS011;34422;45.802;16.114;2022-09-09T17:16:29;8.38;;;3.20;;
48623;SDS011;34422;45.802;16.114;2022-09-09T17:18:57;7.20;;;3.60;;
48623;SDS011;34422;45.802;16.114;2022-09-09T17:21:28;7.20;;;3.22;;
48623;SDS011;34422;45.802;16.114;2022-09-09T17:23:56;8.02;;;3.65;;
48623;SDS011;34422;45.802;16.114;2022-09-09T17:26:24;8.20;;;3.75;;
48623;SDS011;34422;45.802;16.114;2022-09-09T17:28:53;7.55;;;3.38;;